sensor_id;sensor_type;location;lat;lon;timestamp;P1;durP1;ratioP1;P2;durP2;ratioP2
16466;SDS011;8344;47.560;9.710;2023-05-07T00:01:33;0.30;;;0.30;;
16466;SDS011;8344;47.560;9.710;2023-05-07T00:03:58;0.30;;;0.30;;
16466;SDS011;8344;47.560;9.710;2023-05-07T00:06:23;0.20;;;0.20;;
16466;SDS011;8344;47.560;9.710;2023-05-07T00:08:49;0.20;;;0.20;;
16466;SDS011;8344;47.560;9.710;2023-05-07T00:11:14;0.20;;;0.20;;
16466;SDS011;8344;47.560;9.710;2023-05-07T00:13:39;0.20;;;0.20;;
16466;SDS011;8344;47.560;9.710;2023-05-07T00:16:05;0.20;;;0.20;;
16466;SDS011;8344;47.560;9.710;2023-05-07T00:18:30;0.30;;;0.30;;
16466;SDS011;8344;47.560;9.710;2023-05-07T00:20:55;0.20;;;0.20;;
16466;SDS011;8344;47.560;9.710;2023-05-07T00:23:21;0.30;;;0.30;;
16466;SDS011;8344;47.560;9.710;2023-05-07T00:25:46;0.30;;;0.30;;
16466;SDS011;8344;47.560;9.710;2023-05-07T00:28:12;0.30;;;0.30;;
16466;SDS011;8344;47.560;9.710;2023-05-07T00:30:37;0.30;;;0.30;;
16466;SDS011;8344;47.560;9.710;2023-05-07T00:33:02;0.30;;;0.30;;
16466;SDS011;8344;47.560;9.710;2023-05-07T00:35:30;0.30;;;0.30;;
16466;SDS011;8344;47.560;9.710;2023-05-07T00:37:55;0.20;;;0.20;;
16466;SDS011;8344;47.560;9.710;2023-05-07T00:40:21;0.20;;;0.20;;
16466;SDS011;8344;47.560;9.710;2023-05-07T00:42:46;0.30;;;0.30;;
16466;SDS011;8344;47.560;9.710;2023-05-07T00:45:13;0.20;;;0.20;;
16466;SDS011;8344;47.560;9.710;2023-05-07T00:47:39;0.30;;;0.30;;
16466;SDS011;8344;47.560;9.710;2023-05-07T00:50:05;0.20;;;0.20;;
16466;SDS011;8344;47.560;9.710;2023-05-07T00:52:32;0.20;;;0.20;;
16466;SDS011;8344;47.560;9.710;2023-05-07T00:54:57;0.20;;;0.20;;
16466;SDS011;8344;47.560;9.710;2023-05-07T00:57:23;0.30;;;0.30;;
16466;SDS011;8344;47.560;9.710;2023-05-07T00:59:49;0.30;;;0.30;;
16466;SDS011;8344;47.560;9.710;2023-05-07T01:02:16;0.20;;;0.20;;
16466;SDS011;8344;47.560;9.710;2023-05-07T01:04:41;0.40;;;0.40;;
16466;SDS011;8344;47.560;9.710;2023-05-07T01:07:06;0.20;;;0.20;;
16466;SDS011;8344;47.560;9.710;2023-05-07T01:09:32;0.22;;;0.22;;
16466;SDS011;8344;47.560;9.710;2023-05-07T01:12:00;0.28;;;0.28;;
16466;SDS011;8344;47.560;9.710;2023-05-07T01:14:25;0.25;;;0.25;;
16466;SDS011;8344;47.560;9.710;2023-05-07T01:16:50;0.20;;;0.20;;
16466;SDS011;8344;47.560;9.710;2023-05-07T01:19:17;0.28;;;0.28;;
16466;SDS011;8344;47.560;9.710;2023-05-07T01:21:44;0.30;;;0.30;;
16466;SDS011;8344;47.560;9.710;2023-05-07T01:24:12;0.20;;;0.20;;
16466;SDS011;8344;47.560;9.710;2023-05-07T01:26:38;0.20;;;0.20;;
16466;SDS011;8344;47.560;9.710;2023-05-07T01:29:03;0.20;;;0.20;;
16466;SDS011;8344;47.560;9.710;2023-05-07T01:31:29;0.20;;;0.20;;
16466;SDS011;8344;47.560;9.710;2023-05-07T01:33:54;0.20;;;0.20;;
16466;SDS011;8344;47.560;9.710;2023-05-07T01:36:21;0.40;;;0.40;;
16466;SDS011;8344;47.560;9.710;2023-05-07T01:38:48;0.20;;;0.20;;
16466;SDS011;8344;47.560;9.710;2023-05-07T01:41:14;0.20;;;0.20;;
16466;SDS011;8344;47.560;9.710;2023-05-07T01:43:40;0.25;;;0.25;;
16466;SDS011;8344;47.560;9.710;2023-05-07T01:46:06;0.20;;;0.20;;
16466;SDS011;8344;47.560;9.710;2023-05-07T01:48:32;0.25;;;0.25;;
16466;SDS011;8344;47.560;9.710;2023-05-07T01:50:58;0.30;;;0.30;;
16466;SDS011;8344;47.560;9.710;2023-05-07T01:53:26;0.30;;;0.30;;
16466;SDS011;8344;47.560;9.710;2023-05-07T01:55:52;0.28;;;0.28;;
16466;SDS011;8344;47.560;9.710;2023-05-07T01:58:17;0.30;;;0.30;;
16466;SDS011;8344;47.560;9.710;2023-05-07T02:00:43;0.30;;;0.30;;
16466;SDS011;8344;47.560;9.710;2023-05-07T02:03:08;0.30;;;0.30;;
16466;SDS011;8344;47.560;9.710;2023-05-07T02:05:34;0.20;;;0.20;;
16466;SDS011;8344;47.560;9.710;2023-05-07T02:07:59;0.20;;;0.20;;
16466;SDS011;8344;47.560;9.710;2023-05-07T02:10:24;0.20;;;0.20;;
16466;SDS011;8344;47.560;9.710;2023-05-07T02:12:50;0.20;;;0.20;;
16466;SDS011;8344;47.560;9.710;2023-05-07T02:15:15;0.30;;;0.30;;
16466;SDS011;8344;47.560;9.710;2023-05-07T02:17:57;0.20;;;0.20;;
16466;SDS011;8344;47.560;9.710;2023-05-07T02:20:32;0.20;;;0.20;;
16466;SDS011;8344;47.560;9.710;2023-05-07T02:22:58;0.20;;;0.20;;
16466;SDS011;8344;47.560;9.710;2023-05-07T02:25:23;0.28;;;0.28;;
16466;SDS011;8344;47.560;9.710;2023-05-07T02:27:48;0.20;;;0.20;;
16466;SDS011;8344;47.560;9.710;2023-05-07T02:30:14;0.30;;;0.30;;
16466;SDS011;8344;47.560;9.710;2023-05-07T02:32:39;0.30;;;0.30;;
16466;SDS011;8344;47.560;9.710;2023-05-07T02:35:05;0.40;;;0.40;;
16466;SDS011;8344;47.560;9.710;2023-05-07T02:37:30;0.40;;;0.40;;
16466;SDS011;8344;47.560;9.710;2023-05-07T02:39:55;0.20;;;0.20;;
16466;SDS011;8344;47.560;9.710;2023-05-07T02:42:21;0.40;;;0.40;;
16466;SDS011;8344;47.560;9.710;2023-05-07T02:44:46;0.28;;;0.28;;
16466;SDS011;8344;47.560;9.710;2023-05-07T02:47:12;0.30;;;0.30;;
16466;SDS011;8344;47.560;9.710;2023-05-07T02:49:38;0.30;;;0.30;;
16466;SDS011;8344;47.560;9.710;2023-05-07T02:52:04;0.30;;;0.30;;
16466;SDS011;8344;47.560;9.710;2023-05-07T02:54:29;0.20;;;0.20;;
16466;SDS011;8344;47.560;9.710;2023-05-07T02:56:55;0.30;;;0.30;;
16466;SDS011;8344;47.560;9.710;2023-05-07T02:59:21;0.30;;;0.30;;
16466;SDS011;8344;47.560;9.710;2023-05-07T03:01:46;0.30;;;0.30;;
16466;SDS011;8344;47.560;9.710;2023-05-07T03:04:11;0.30;;;0.30;;
16466;SDS011;8344;47.560;9.710;2023-05-07T03:06:37;0.30;;;0.30;;
16466;SDS011;8344;47.560;9.710;2023-05-07T03:09:02;0.30;;;0.30;;
16466;SDS011;8344;47.560;9.710;2023-05-07T03:11:27;0.30;;;0.30;;
16466;SDS011;8344;47.560;9.710;2023-05-07T03:13:53;0.30;;;0.30;;
16466;SDS011;8344;47.560;9.710;2023-05-07T03:16:18;0.30;;;0.30;;
16466;SDS011;8344;47.560;9.710;2023-05-07T03:18:43;0.40;;;0.40;;
16466;SDS011;8344;47.560;9.710;2023-05-07T03:21:09;0.30;;;0.30;;
16466;SDS011;8344;47.560;9.710;2023-05-07T03:23:34;0.30;;;0.30;;
16466;SDS011;8344;47.560;9.710;2023-05-07T03:25:59;0.32;;;0.32;;
16466;SDS011;8344;47.560;9.710;2023-05-07T03:28:25;0.28;;;0.28;;
16466;SDS011;8344;47.560;9.710;2023-05-07T03:30:50;0.40;;;0.40;;
16466;SDS011;8344;47.560;9.710;2023-05-07T03:33:15;0.30;;;0.30;;
16466;SDS011;8344;47.560;9.710;2023-05-07T03:35:41;0.30;;;0.30;;
16466;SDS011;8344;47.560;9.710;2023-05-07T03:38:06;0.30;;;0.30;;
16466;SDS011;8344;47.560;9.710;2023-05-07T03:40:32;0.20;;;0.20;;
16466;SDS011;8344;47.560;9.710;2023-05-07T03:42:57;0.30;;;0.30;;
16466;SDS011;8344;47.560;9.710;2023-05-07T03:45:22;0.30;;;0.30;;
16466;SDS011;8344;47.560;9.710;2023-05-07T03:47:47;0.40;;;0.40;;
16466;SDS011;8344;47.560;9.710;2023-05-07T03:50:13;0.30;;;0.30;;
16466;SDS011;8344;47.560;9.710;2023-05-07T03:52:38;0.30;;;0.30;;
16466;SDS011;8344;47.560;9.710;2023-05-07T03:55:04;0.30;;;0.30;;
16466;SDS011;8344;47.560;9.710;2023-05-07T03:57:30;0.32;;;0.32;;
16466;SDS011;8344;47.560;9.710;2023-05-07T03:59:56;0.30;;;0.30;;
16466;SDS011;8344;47.560;9.710;2023-05-07T04:02:21;0.32;;;0.32;;
16466;SDS011;8344;47.560;9.710;2023-05-07T04:04:48;0.40;;;0.40;;
16466;SDS011;8344;47.560;9.710;2023-05-07T04:07:13;0.30;;;0.30;;
16466;SDS011;8344;47.560;9.710;2023-05-07T04:09:39;0.30;;;0.30;;
16466;SDS011;8344;47.560;9.710;2023-05-07T04:12:04;0.30;;;0.30;;
16466;SDS011;8344;47.560;9.710;2023-05-07T04:14:29;0.30;;;0.30;;
16466;SDS011;8344;47.560;9.710;2023-05-07T04:16:57;0.30;;;0.30;;
16466;SDS011;8344;47.560;9.710;2023-05-07T04:19:22;0.30;;;0.30;;
16466;SDS011;8344;47.560;9.710;2023-05-07T04:21:47;0.30;;;0.30;;
16466;SDS011;8344;47.560;9.710;2023-05-07T04:24:12;0.30;;;0.30;;
16466;SDS011;8344;47.560;9.710;2023-05-07T04:26:38;0.30;;;0.30;;
16466;SDS011;8344;47.560;9.710;2023-05-07T04:29:05;0.30;;;0.30;;
16466;SDS011;8344;47.560;9.710;2023-05-07T04:31:30;0.30;;;0.30;;
16466;SDS011;8344;47.560;9.710;2023-05-07T04:33:55;0.30;;;0.30;;
16466;SDS011;8344;47.560;9.710;2023-05-07T04:36:21;0.30;;;0.30;;
16466;SDS011;8344;47.560;9.710;2023-05-07T04:41:18;0.35;;;0.35;;
16466;SDS011;8344;47.560;9.710;2023-05-07T04:43:44;0.40;;;0.40;;
16466;SDS011;8344;47.560;9.710;2023-05-07T04:46:09;0.30;;;0.30;;
16466;SDS011;8344;47.560;9.710;2023-05-07T04:48:35;0.40;;;0.40;;
16466;SDS011;8344;47.560;9.710;2023-05-07T04:51:00;0.20;;;0.20;;
16466;SDS011;8344;47.560;9.710;2023-05-07T04:53:25;0.20;;;0.20;;
16466;SDS011;8344;47.560;9.710;2023-05-07T04:55:56;0.30;;;0.30;;
16466;SDS011;8344;47.560;9.710;2023-05-07T04:58:22;0.25;;;0.25;;
16466;SDS011;8344;47.560;9.710;2023-05-07T05:00:47;0.20;;;0.20;;
16466;SDS011;8344;47.560;9.710;2023-05-07T05:03:13;0.30;;;0.30;;
16466;SDS011;8344;47.560;9.710;2023-05-07T05:05:38;0.32;;;0.32;;
16466;SDS011;8344;47.560;9.710;2023-05-07T05:08:03;0.20;;;0.20;;
16466;SDS011;8344;47.560;9.710;2023-05-07T05:10:28;0.20;;;0.20;;
16466;SDS011;8344;47.560;9.710;2023-05-07T05:12:54;0.28;;;0.28;;
16466;SDS011;8344;47.560;9.710;2023-05-07T05:15:19;0.30;;;0.30;;
16466;SDS011;8344;47.560;9.710;2023-05-07T05:17:45;0.20;;;0.20;;
16466;SDS011;8344;47.560;9.710;2023-05-07T05:20:10;0.30;;;0.30;;
16466;SDS011;8344;47.560;9.710;2023-05-07T05:22:36;0.30;;;0.30;;
16466;SDS011;8344;47.560;9.710;2023-05-07T05:25:01;0.20;;;0.20;;
16466;SDS011;8344;47.560;9.710;2023-05-07T05:27:27;0.30;;;0.30;;
16466;SDS011;8344;47.560;9.710;2023-05-07T05:29:53;0.30;;;0.30;;
16466;SDS011;8344;47.560;9.710;2023-05-07T05:32:18;0.10;;;0.10;;
16466;SDS011;8344;47.560;9.710;2023-05-07T05:34:44;0.13;;;0.13;;
16466;SDS011;8344;47.560;9.710;2023-05-07T05:37:09;0.20;;;0.20;;
16466;SDS011;8344;47.560;9.710;2023-05-07T05:39:35;0.17;;;0.17;;
16466;SDS011;8344;47.560;9.710;2023-05-07T05:42:00;0.22;;;0.22;;
16466;SDS011;8344;47.560;9.710;2023-05-07T05:44:26;0.13;;;0.13;;
16466;SDS011;8344;47.560;9.710;2023-05-07T05:46:51;0.20;;;0.20;;
16466;SDS011;8344;47.560;9.710;2023-05-07T05:49:16;0.20;;;0.20;;
16466;SDS011;8344;47.560;9.710;2023-05-07T05:51:42;0.10;;;0.10;;
16466;SDS011;8344;47.560;9.710;2023-05-07T05:54:08;0.20;;;0.20;;
16466;SDS011;8344;47.560;9.710;2023-05-07T05:56:33;0.10;;;0.10;;
16466;SDS011;8344;47.560;9.710;2023-05-07T05:58:59;0.15;;;0.15;;
16466;SDS011;8344;47.560;9.710;2023-05-07T06:01:24;0.20;;;0.20;;
16466;SDS011;8344;47.560;9.710;2023-05-07T06:03:50;0.20;;;0.20;;
16466;SDS011;8344;47.560;9.710;2023-05-07T06:06:15;0.20;;;0.20;;
16466;SDS011;8344;47.560;9.710;2023-05-07T06:08:40;0.20;;;0.20;;
16466;SDS011;8344;47.560;9.710;2023-05-07T06:11:07;0.10;;;0.10;;
16466;SDS011;8344;47.560;9.710;2023-05-07T06:13:32;0.20;;;0.20;;
16466;SDS011;8344;47.560;9.710;2023-05-07T06:15:57;0.10;;;0.10;;
16466;SDS011;8344;47.560;9.710;2023-05-07T06:18:23;0.20;;;0.20;;
16466;SDS011;8344;47.560;9.710;2023-05-07T06:20:48;0.20;;;0.20;;
16466;SDS011;8344;47.560;9.710;2023-05-07T06:23:14;0.13;;;0.13;;
16466;SDS011;8344;47.560;9.710;2023-05-07T06:25:39;0.22;;;0.22;;
16466;SDS011;8344;47.560;9.710;2023-05-07T06:28:05;0.20;;;0.20;;
16466;SDS011;8344;47.560;9.710;2023-05-07T06:30:31;0.10;;;0.10;;
16466;SDS011;8344;47.560;9.710;2023-05-07T06:32:56;0.20;;;0.20;;
16466;SDS011;8344;47.560;9.710;2023-05-07T06:35:21;0.10;;;0.10;;
16466;SDS011;8344;47.560;9.710;2023-05-07T06:37:47;0.10;;;0.10;;
16466;SDS011;8344;47.560;9.710;2023-05-07T06:40:12;0.10;;;0.10;;
16466;SDS011;8344;47.560;9.710;2023-05-07T06:42:37;0.13;;;0.13;;
16466;SDS011;8344;47.560;9.710;2023-05-07T06:45:03;0.13;;;0.13;;
16466;SDS011;8344;47.560;9.710;2023-05-07T06:47:29;0.20;;;0.20;;
16466;SDS011;8344;47.560;9.710;2023-05-07T06:49:54;0.10;;;0.10;;
16466;SDS011;8344;47.560;9.710;2023-05-07T06:52:20;0.08;;;0.08;;
16466;SDS011;8344;47.560;9.710;2023-05-07T06:54:45;0.15;;;0.15;;
16466;SDS011;8344;47.560;9.710;2023-05-07T06:57:10;0.10;;;0.10;;
16466;SDS011;8344;47.560;9.710;2023-05-07T06:59:35;0.10;;;0.10;;
16466;SDS011;8344;47.560;9.710;2023-05-07T07:02:01;0.17;;;0.17;;
16466;SDS011;8344;47.560;9.710;2023-05-07T07:04:26;0.10;;;0.10;;
16466;SDS011;8344;47.560;9.710;2023-05-07T07:06:53;0.13;;;0.13;;
16466;SDS011;8344;47.560;9.710;2023-05-07T07:09:19;0.10;;;0.10;;
16466;SDS011;8344;47.560;9.710;2023-05-07T07:11:44;0.15;;;0.15;;
16466;SDS011;8344;47.560;9.710;2023-05-07T07:14:09;0.20;;;0.20;;
16466;SDS011;8344;47.560;9.710;2023-05-07T07:16:35;0.20;;;0.20;;
16466;SDS011;8344;47.560;9.710;2023-05-07T07:19:00;0.20;;;0.20;;
16466;SDS011;8344;47.560;9.710;2023-05-07T07:21:25;0.20;;;0.20;;
16466;SDS011;8344;47.560;9.710;2023-05-07T07:23:51;0.10;;;0.10;;
16466;SDS011;8344;47.560;9.710;2023-05-07T07:26:17;0.20;;;0.20;;
16466;SDS011;8344;47.560;9.710;2023-05-07T07:28:43;0.20;;;0.20;;
16466;SDS011;8344;47.560;9.710;2023-05-07T07:31:09;0.20;;;0.20;;
16466;SDS011;8344;47.560;9.710;2023-05-07T07:33:34;0.20;;;0.20;;
16466;SDS011;8344;47.560;9.710;2023-05-07T07:36:00;0.20;;;0.20;;
16466;SDS011;8344;47.560;9.710;2023-05-07T07:38:25;0.10;;;0.10;;
16466;SDS011;8344;47.560;9.710;2023-05-07T07:40:50;0.20;;;0.20;;
16466;SDS011;8344;47.560;9.710;2023-05-07T07:43:15;0.20;;;0.20;;
16466;SDS011;8344;47.560;9.710;2023-05-07T07:45:41;0.20;;;0.20;;
16466;SDS011;8344;47.560;9.710;2023-05-07T07:48:06;0.22;;;0.22;;
16466;SDS011;8344;47.560;9.710;2023-05-07T07:50:32;0.20;;;0.20;;
16466;SDS011;8344;47.560;9.710;2023-05-07T07:52:57;0.20;;;0.20;;
16466;SDS011;8344;47.560;9.710;2023-05-07T07:55:22;0.10;;;0.10;;
16466;SDS011;8344;47.560;9.710;2023-05-07T07:57:48;0.10;;;0.10;;
16466;SDS011;8344;47.560;9.710;2023-05-07T08:00:14;0.20;;;0.20;;
16466;SDS011;8344;47.560;9.710;2023-05-07T08:02:40;0.20;;;0.20;;
16466;SDS011;8344;47.560;9.710;2023-05-07T08:05:06;0.20;;;0.20;;
16466;SDS011;8344;47.560;9.710;2023-05-07T08:07:31;0.20;;;0.20;;
16466;SDS011;8344;47.560;9.710;2023-05-07T08:09:56;0.10;;;0.10;;
16466;SDS011;8344;47.560;9.710;2023-05-07T08:12:22;0.10;;;0.10;;
16466;SDS011;8344;47.560;9.710;2023-05-07T08:14:47;0.20;;;0.20;;
16466;SDS011;8344;47.560;9.710;2023-05-07T08:17:12;0.20;;;0.20;;
16466;SDS011;8344;47.560;9.710;2023-05-07T08:19:40;0.20;;;0.20;;
16466;SDS011;8344;47.560;9.710;2023-05-07T08:22:06;0.20;;;0.20;;
16466;SDS011;8344;47.560;9.710;2023-05-07T08:24:31;0.10;;;0.10;;
16466;SDS011;8344;47.560;9.710;2023-05-07T08:26:56;0.10;;;0.10;;
16466;SDS011;8344;47.560;9.710;2023-05-07T08:29:21;0.10;;;0.10;;
16466;SDS011;8344;47.560;9.710;2023-05-07T08:31:47;0.10;;;0.10;;
16466;SDS011;8344;47.560;9.710;2023-05-07T08:34:12;0.10;;;0.10;;
16466;SDS011;8344;47.560;9.710;2023-05-07T08:36:37;0.10;;;0.10;;
16466;SDS011;8344;47.560;9.710;2023-05-07T08:39:03;0.10;;;0.10;;
16466;SDS011;8344;47.560;9.710;2023-05-07T08:41:28;0.10;;;0.10;;
16466;SDS011;8344;47.560;9.710;2023-05-07T08:43:54;0.20;;;0.20;;
16466;SDS011;8344;47.560;9.710;2023-05-07T08:46:23;0.10;;;0.10;;
16466;SDS011;8344;47.560;9.710;2023-05-07T08:48:50;0.20;;;0.20;;
16466;SDS011;8344;47.560;9.710;2023-05-07T08:51:17;0.15;;;0.15;;
16466;SDS011;8344;47.560;9.710;2023-05-07T08:53:43;0.20;;;0.20;;
16466;SDS011;8344;47.560;9.710;2023-05-07T08:56:09;0.25;;;0.25;;
16466;SDS011;8344;47.560;9.710;2023-05-07T08:58:34;0.10;;;0.10;;
16466;SDS011;8344;47.560;9.710;2023-05-07T09:01:03;0.20;;;0.20;;
16466;SDS011;8344;47.560;9.710;2023-05-07T09:03:32;0.20;;;0.20;;
16466;SDS011;8344;47.560;9.710;2023-05-07T09:05:57;0.20;;;0.20;;
16466;SDS011;8344;47.560;9.710;2023-05-07T09:08:26;0.10;;;0.10;;
16466;SDS011;8344;47.560;9.710;2023-05-07T09:10:52;0.10;;;0.10;;
16466;SDS011;8344;47.560;9.710;2023-05-07T09:13:17;0.10;;;0.10;;
16466;SDS011;8344;47.560;9.710;2023-05-07T09:15:43;0.15;;;0.15;;
16466;SDS011;8344;47.560;9.710;2023-05-07T09:18:08;0.10;;;0.10;;
16466;SDS011;8344;47.560;9.710;2023-05-07T09:20:33;0.10;;;0.10;;
16466;SDS011;8344;47.560;9.710;2023-05-07T09:23:01;0.20;;;0.20;;
16466;SDS011;8344;47.560;9.710;2023-05-07T09:25:31;0.20;;;0.20;;
16466;SDS011;8344;47.560;9.710;2023-05-07T09:27:57;0.15;;;0.15;;
16466;SDS011;8344;47.560;9.710;2023-05-07T09:30:22;0.10;;;0.10;;
16466;SDS011;8344;47.560;9.710;2023-05-07T09:32:48;0.15;;;0.15;;
16466;SDS011;8344;47.560;9.710;2023-05-07T09:35:17;0.10;;;0.10;;
16466;SDS011;8344;47.560;9.710;2023-05-07T09:37:42;0.10;;;0.10;;
16466;SDS011;8344;47.560;9.710;2023-05-07T09:40:08;0.20;;;0.20;;
16466;SDS011;8344;47.560;9.710;2023-05-07T09:42:45;0.10;;;0.10;;
16466;SDS011;8344;47.560;9.710;2023-05-07T09:45:12;0.17;;;0.17;;
16466;SDS011;8344;47.560;9.710;2023-05-07T09:47:37;0.10;;;0.10;;
16466;SDS011;8344;47.560;9.710;2023-05-07T09:50:04;0.10;;;0.10;;
16466;SDS011;8344;47.560;9.710;2023-05-07T09:52:30;0.20;;;0.20;;
16466;SDS011;8344;47.560;9.710;2023-05-07T09:54:58;0.20;;;0.20;;
16466;SDS011;8344;47.560;9.710;2023-05-07T09:57:24;0.10;;;0.10;;
16466;SDS011;8344;47.560;9.710;2023-05-07T09:59:50;0.10;;;0.10;;
16466;SDS011;8344;47.560;9.710;2023-05-07T10:02:16;0.10;;;0.10;;
16466;SDS011;8344;47.560;9.710;2023-05-07T10:04:42;0.10;;;0.10;;
16466;SDS011;8344;47.560;9.710;2023-05-07T10:07:08;0.10;;;0.10;;
16466;SDS011;8344;47.560;9.710;2023-05-07T10:09:33;0.20;;;0.20;;
16466;SDS011;8344;47.560;9.710;2023-05-07T10:12:03;0.20;;;0.20;;
16466;SDS011;8344;47.560;9.710;2023-05-07T10:14:30;0.10;;;0.10;;
16466;SDS011;8344;47.560;9.710;2023-05-07T10:16:55;0.15;;;0.15;;
16466;SDS011;8344;47.560;9.710;2023-05-07T10:19:21;0.10;;;0.10;;
16466;SDS011;8344;47.560;9.710;2023-05-07T10:21:56;0.10;;;0.10;;
16466;SDS011;8344;47.560;9.710;2023-05-07T10:24:26;0.10;;;0.10;;
16466;SDS011;8344;47.560;9.710;2023-05-07T10:26:54;0.10;;;0.10;;
16466;SDS011;8344;47.560;9.710;2023-05-07T10:34:54;0.10;;;0.10;;
16466;SDS011;8344;47.560;9.710;2023-05-07T10:37:20;0.20;;;0.20;;
16466;SDS011;8344;47.560;9.710;2023-05-07T10:39:46;0.20;;;0.20;;
16466;SDS011;8344;47.560;9.710;2023-05-07T10:42:12;0.13;;;0.13;;
16466;SDS011;8344;47.560;9.710;2023-05-07T10:44:38;0.13;;;0.13;;
16466;SDS011;8344;47.560;9.710;2023-05-07T10:47:07;0.10;;;0.10;;
16466;SDS011;8344;47.560;9.710;2023-05-07T10:49:35;0.10;;;0.10;;
16466;SDS011;8344;47.560;9.710;2023-05-07T10:52:20;0.10;;;0.10;;
16466;SDS011;8344;47.560;9.710;2023-05-07T10:55:18;0.10;;;0.10;;
16466;SDS011;8344;47.560;9.710;2023-05-07T10:57:39;0.20;;;0.20;;
16466;SDS011;8344;47.560;9.710;2023-05-07T11:05:29;0.20;;;0.20;;
16466;SDS011;8344;47.560;9.710;2023-05-07T11:07:56;0.10;;;0.10;;
16466;SDS011;8344;47.560;9.710;2023-05-07T11:10:21;0.20;;;0.20;;
16466;SDS011;8344;47.560;9.710;2023-05-07T11:12:48;0.10;;;0.10;;
16466;SDS011;8344;47.560;9.710;2023-05-07T11:15:33;0.10;;;0.10;;
16466;SDS011;8344;47.560;9.710;2023-05-07T11:18:06;0.10;;;0.10;;
16466;SDS011;8344;47.560;9.710;2023-05-07T11:25:59;0.10;;;0.10;;
16466;SDS011;8344;47.560;9.710;2023-05-07T11:28:25;0.10;;;0.10;;
16466;SDS011;8344;47.560;9.710;2023-05-07T11:30:52;0.10;;;0.10;;
16466;SDS011;8344;47.560;9.710;2023-05-07T11:33:18;0.10;;;0.10;;
16466;SDS011;8344;47.560;9.710;2023-05-07T11:35:43;0.10;;;0.10;;
16466;SDS011;8344;47.560;9.710;2023-05-07T11:38:09;0.20;;;0.20;;
16466;SDS011;8344;47.560;9.710;2023-05-07T11:40:34;0.10;;;0.10;;
16466;SDS011;8344;47.560;9.710;2023-05-07T11:43:03;0.10;;;0.10;;
16466;SDS011;8344;47.560;9.710;2023-05-07T11:45:35;0.10;;;0.10;;
16466;SDS011;8344;47.560;9.710;2023-05-07T11:48:01;0.10;;;0.10;;
16466;SDS011;8344;47.560;9.710;2023-05-07T11:50:27;0.10;;;0.10;;
16466;SDS011;8344;47.560;9.710;2023-05-07T11:52:52;0.10;;;0.10;;
16466;SDS011;8344;47.560;9.710;2023-05-07T11:55:18;0.10;;;0.10;;
16466;SDS011;8344;47.560;9.710;2023-05-07T11:57:43;0.08;;;0.08;;
16466;SDS011;8344;47.560;9.710;2023-05-07T12:00:09;0.10;;;0.10;;
16466;SDS011;8344;47.560;9.710;2023-05-07T12:02:35;0.10;;;0.10;;
16466;SDS011;8344;47.560;9.710;2023-05-07T12:05:00;0.10;;;0.10;;
16466;SDS011;8344;47.560;9.710;2023-05-07T12:07:27;0.13;;;0.13;;
16466;SDS011;8344;47.560;9.710;2023-05-07T12:09:53;0.08;;;0.08;;
16466;SDS011;8344;47.560;9.710;2023-05-07T12:12:18;0.10;;;0.10;;
16466;SDS011;8344;47.560;9.710;2023-05-07T12:14:44;0.10;;;0.10;;
16466;SDS011;8344;47.560;9.710;2023-05-07T12:17:11;0.10;;;0.10;;
16466;SDS011;8344;47.560;9.710;2023-05-07T12:19:37;0.20;;;0.20;;
16466;SDS011;8344;47.560;9.710;2023-05-07T12:22:04;0.10;;;0.10;;
16466;SDS011;8344;47.560;9.710;2023-05-07T12:24:41;0.10;;;0.10;;
16466;SDS011;8344;47.560;9.710;2023-05-07T12:27:16;0.10;;;0.10;;
16466;SDS011;8344;47.560;9.710;2023-05-07T12:29:48;0.10;;;0.10;;
16466;SDS011;8344;47.560;9.710;2023-05-07T12:32:15;0.10;;;0.10;;
16466;SDS011;8344;47.560;9.710;2023-05-07T12:34:41;0.10;;;0.10;;
16466;SDS011;8344;47.560;9.710;2023-05-07T12:37:06;0.10;;;0.10;;
16466;SDS011;8344;47.560;9.710;2023-05-07T12:39:32;0.20;;;0.20;;
16466;SDS011;8344;47.560;9.710;2023-05-07T12:41:58;0.10;;;0.10;;
16466;SDS011;8344;47.560;9.710;2023-05-07T12:44:33;0.10;;;0.10;;
16466;SDS011;8344;47.560;9.710;2023-05-07T12:47:03;0.10;;;0.10;;
16466;SDS011;8344;47.560;9.710;2023-05-07T12:49:29;0.10;;;0.10;;
16466;SDS011;8344;47.560;9.710;2023-05-07T12:51:54;0.10;;;0.10;;
16466;SDS011;8344;47.560;9.710;2023-05-07T12:54:30;0.20;;;0.20;;
16466;SDS011;8344;47.560;9.710;2023-05-07T12:57:03;0.10;;;0.10;;
16466;SDS011;8344;47.560;9.710;2023-05-07T13:02:01;0.10;;;0.10;;
16466;SDS011;8344;47.560;9.710;2023-05-07T13:04:26;0.08;;;0.08;;
16466;SDS011;8344;47.560;9.710;2023-05-07T13:06:52;0.10;;;0.10;;
16466;SDS011;8344;47.560;9.710;2023-05-07T13:09:17;0.20;;;0.20;;
16466;SDS011;8344;47.560;9.710;2023-05-07T13:11:42;0.10;;;0.10;;
16466;SDS011;8344;47.560;9.710;2023-05-07T13:14:07;0.10;;;0.10;;
16466;SDS011;8344;47.560;9.710;2023-05-07T13:16:33;0.10;;;0.10;;
16466;SDS011;8344;47.560;9.710;2023-05-07T13:18:58;0.10;;;0.10;;
16466;SDS011;8344;47.560;9.710;2023-05-07T13:21:23;0.10;;;0.10;;
16466;SDS011;8344;47.560;9.710;2023-05-07T13:23:49;0.10;;;0.10;;
16466;SDS011;8344;47.560;9.710;2023-05-07T13:26:14;0.20;;;0.20;;
16466;SDS011;8344;47.560;9.710;2023-05-07T13:28:40;0.10;;;0.10;;
16466;SDS011;8344;47.560;9.710;2023-05-07T13:31:05;0.10;;;0.10;;
16466;SDS011;8344;47.560;9.710;2023-05-07T13:33:30;0.10;;;0.10;;
16466;SDS011;8344;47.560;9.710;2023-05-07T13:35:56;0.10;;;0.10;;
16466;SDS011;8344;47.560;9.710;2023-05-07T13:38:22;0.20;;;0.20;;
16466;SDS011;8344;47.560;9.710;2023-05-07T13:40:47;0.10;;;0.10;;
16466;SDS011;8344;47.560;9.710;2023-05-07T13:43:12;0.10;;;0.10;;
16466;SDS011;8344;47.560;9.710;2023-05-07T13:45:37;0.10;;;0.10;;
16466;SDS011;8344;47.560;9.710;2023-05-07T13:48:03;0.15;;;0.15;;
16466;SDS011;8344;47.560;9.710;2023-05-07T13:50:28;0.10;;;0.10;;
16466;SDS011;8344;47.560;9.710;2023-05-07T13:52:54;0.10;;;0.10;;
16466;SDS011;8344;47.560;9.710;2023-05-07T13:55:21;0.10;;;0.10;;
16466;SDS011;8344;47.560;9.710;2023-05-07T13:57:47;0.10;;;0.10;;
16466;SDS011;8344;47.560;9.710;2023-05-07T14:00:13;0.20;;;0.20;;
16466;SDS011;8344;47.560;9.710;2023-05-07T14:02:39;0.10;;;0.10;;
16466;SDS011;8344;47.560;9.710;2023-05-07T14:05:05;0.10;;;0.10;;
16466;SDS011;8344;47.560;9.710;2023-05-07T14:07:30;0.10;;;0.10;;
16466;SDS011;8344;47.560;9.710;2023-05-07T14:09:56;0.20;;;0.20;;
16466;SDS011;8344;47.560;9.710;2023-05-07T14:12:21;0.10;;;0.10;;
16466;SDS011;8344;47.560;9.710;2023-05-07T14:14:47;0.10;;;0.10;;
16466;SDS011;8344;47.560;9.710;2023-05-07T14:17:12;0.10;;;0.10;;
16466;SDS011;8344;47.560;9.710;2023-05-07T14:19:38;0.20;;;0.20;;
16466;SDS011;8344;47.560;9.710;2023-05-07T14:22:03;0.17;;;0.17;;
16466;SDS011;8344;47.560;9.710;2023-05-07T14:24:28;0.20;;;0.20;;
16466;SDS011;8344;47.560;9.710;2023-05-07T14:26:53;0.17;;;0.17;;
16466;SDS011;8344;47.560;9.710;2023-05-07T14:29:19;0.10;;;0.10;;
16466;SDS011;8344;47.560;9.710;2023-05-07T14:31:44;0.15;;;0.15;;
16466;SDS011;8344;47.560;9.710;2023-05-07T14:34:10;0.10;;;0.10;;
16466;SDS011;8344;47.560;9.710;2023-05-07T14:36:35;0.10;;;0.10;;
16466;SDS011;8344;47.560;9.710;2023-05-07T14:39:01;0.10;;;0.10;;
16466;SDS011;8344;47.560;9.710;2023-05-07T14:41:26;0.10;;;0.10;;
16466;SDS011;8344;47.560;9.710;2023-05-07T14:43:51;0.10;;;0.10;;
16466;SDS011;8344;47.560;9.710;2023-05-07T14:46:17;0.10;;;0.10;;
16466;SDS011;8344;47.560;9.710;2023-05-07T14:48:43;0.10;;;0.10;;
16466;SDS011;8344;47.560;9.710;2023-05-07T14:51:10;0.10;;;0.10;;
16466;SDS011;8344;47.560;9.710;2023-05-07T14:53:35;0.20;;;0.20;;
16466;SDS011;8344;47.560;9.710;2023-05-07T14:56:01;0.10;;;0.10;;
16466;SDS011;8344;47.560;9.710;2023-05-07T14:58:26;0.13;;;0.13;;
16466;SDS011;8344;47.560;9.710;2023-05-07T15:00:51;0.10;;;0.10;;
16466;SDS011;8344;47.560;9.710;2023-05-07T15:03:17;0.17;;;0.17;;
16466;SDS011;8344;47.560;9.710;2023-05-07T15:05:42;0.15;;;0.15;;
16466;SDS011;8344;47.560;9.710;2023-05-07T15:08:07;0.17;;;0.17;;
16466;SDS011;8344;47.560;9.710;2023-05-07T15:10:36;0.10;;;0.10;;
16466;SDS011;8344;47.560;9.710;2023-05-07T15:13:05;0.15;;;0.15;;
16466;SDS011;8344;47.560;9.710;2023-05-07T15:15:32;0.20;;;0.20;;